sensor_id;sensor_type;location;lat;lon;timestamp;temperature;humidity
4366;DHT22;2196;47.422;9.656;2024-01-06T00:02:04;4.80;99.90
4366;DHT22;2196;47.422;9.656;2024-01-06T00:04:32;4.70;99.90
4366;DHT22;2196;47.422;9.656;2024-01-06T00:06:59;4.80;99.90
4366;DHT22;2196;47.422;9.656;2024-01-06T00:14:24;4.20;99.90
4366;DHT22;2196;47.422;9.656;2024-01-06T00:16:51;4.50;99.90
4366;DHT22;2196;47.422;9.656;2024-01-06T00:24:14;4.60;99.90
4366;DHT22;2196;47.422;9.656;2024-01-06T00:26:41;4.60;99.90
4366;DHT22;2196;47.422;9.656;2024-01-06T00:41:26;4.50;99.90
4366;DHT22;2196;47.422;9.656;2024-01-06T00:48:47;4.60;99.90
4366;DHT22;2196;47.422;9.656;2024-01-06T00:56:10;4.50;99.90
4366;DHT22;2196;47.422;9.656;2024-01-06T00:58:37;4.50;99.90
4366;DHT22;2196;47.422;9.656;2024-01-06T01:01:04;4.60;99.90
4366;DHT22;2196;47.422;9.656;2024-01-06T01:03:31;4.60;99.90
4366;DHT22;2196;47.422;9.656;2024-01-06T01:08:25;4.40;99.90
4366;DHT22;2196;47.422;9.656;2024-01-06T01:10:52;4.60;99.90
4366;DHT22;2196;47.422;9.656;2024-01-06T01:13:20;4.70;99.90
4366;DHT22;2196;47.422;9.656;2024-01-06T01:15:47;4.70;99.90
4366;DHT22;2196;47.422;9.656;2024-01-06T01:18:14;4.60;99.90
4366;DHT22;2196;47.422;9.656;2024-01-06T01:20:41;4.70;99.90
4366;DHT22;2196;47.422;9.656;2024-01-06T01:23:08;4.70;99.90
4366;DHT22;2196;47.422;9.656;2024-01-06T01:25:35;4.60;99.90
4366;DHT22;2196;47.422;9.656;2024-01-06T01:28:03;4.60;99.90
4366;DHT22;2196;47.422;9.656;2024-01-06T01:30:31;4.60;99.90
4366;DHT22;2196;47.422;9.656;2024-01-06T01:32:58;4.70;99.90
4366;DHT22;2196;47.422;9.656;2024-01-06T01:35:25;4.60;99.90
4366;DHT22;2196;47.422;9.656;2024-01-06T01:37:52;4.60;99.90
4366;DHT22;2196;47.422;9.656;2024-01-06T01:40:19;4.60;99.90
4366;DHT22;2196;47.422;9.656;2024-01-06T01:42:46;4.50;99.90
4366;DHT22;2196;47.422;9.656;2024-01-06T01:45:13;4.60;99.90
4366;DHT22;2196;47.422;9.656;2024-01-06T01:47:42;4.50;99.90
4366;DHT22;2196;47.422;9.656;2024-01-06T01:50:12;4.50;99.90
4366;DHT22;2196;47.422;9.656;2024-01-06T01:52:40;4.50;99.90
4366;DHT22;2196;47.422;9.656;2024-01-06T01:55:08;4.40;99.90
4366;DHT22;2196;47.422;9.656;2024-01-06T02:00:03;4.40;99.90
4366;DHT22;2196;47.422;9.656;2024-01-06T02:02:30;4.40;99.90
4366;DHT22;2196;47.422;9.656;2024-01-06T02:04:59;4.50;99.90
4366;DHT22;2196;47.422;9.656;2024-01-06T02:07:26;4.30;99.90
4366;DHT22;2196;47.422;9.656;2024-01-06T02:09:53;4.40;99.90
4366;DHT22;2196;47.422;9.656;2024-01-06T02:12:20;4.40;99.90
4366;DHT22;2196;47.422;9.656;2024-01-06T02:14:47;4.40;99.90
4366;DHT22;2196;47.422;9.656;2024-01-06T02:17:14;4.50;99.90
4366;DHT22;2196;47.422;9.656;2024-01-06T02:19:41;4.40;99.90
4366;DHT22;2196;47.422;9.656;2024-01-06T02:22:10;4.30;99.90
4366;DHT22;2196;47.422;9.656;2024-01-06T02:24:37;4.40;99.90
4366;DHT22;2196;47.422;9.656;2024-01-06T02:27:04;4.50;99.90
4366;DHT22;2196;47.422;9.656;2024-01-06T02:29:31;4.50;99.90
4366;DHT22;2196;47.422;9.656;2024-01-06T02:32:02;4.50;99.90
4366;DHT22;2196;47.422;9.656;2024-01-06T02:41:57;4.30;99.90
4366;DHT22;2196;47.422;9.656;2024-01-06T02:44:24;4.40;99.90
4366;DHT22;2196;47.422;9.656;2024-01-06T02:46:51;4.40;99.90
4366;DHT22;2196;47.422;9.656;2024-01-06T02:51:47;4.30;99.90
4366;DHT22;2196;47.422;9.656;2024-01-06T02:54:14;4.30;99.90
4366;DHT22;2196;47.422;9.656;2024-01-06T02:56:42;4.30;99.90
4366;DHT22;2196;47.422;9.656;2024-01-06T02:59:09;4.40;99.90
4366;DHT22;2196;47.422;9.656;2024-01-06T03:01:36;4.30;99.90
4366;DHT22;2196;47.422;9.656;2024-01-06T03:04:03;4.30;99.90
4366;DHT22;2196;47.422;9.656;2024-01-06T03:06:30;4.40;99.90
4366;DHT22;2196;47.422;9.656;2024-01-06T03:08:57;4.30;99.90
4366;DHT22;2196;47.422;9.656;2024-01-06T03:11:24;4.10;99.90
4366;DHT22;2196;47.422;9.656;2024-01-06T03:13:52;4.20;99.90
4366;DHT22;2196;47.422;9.656;2024-01-06T03:16:19;4.10;99.90
4366;DHT22;2196;47.422;9.656;2024-01-06T03:18:46;4.20;99.90
4366;DHT22;2196;47.422;9.656;2024-01-06T03:21:17;4.20;99.90
4366;DHT22;2196;47.422;9.656;2024-01-06T03:23:44;4.10;99.90
4366;DHT22;2196;47.422;9.656;2024-01-06T03:26:12;4.30;99.90
4366;DHT22;2196;47.422;9.656;2024-01-06T03:28:39;4.20;99.90
4366;DHT22;2196;47.422;9.656;2024-01-06T03:36:04;4.10;99.90
4366;DHT22;2196;47.422;9.656;2024-01-06T03:38:32;4.10;99.90
4366;DHT22;2196;47.422;9.656;2024-01-06T03:40:59;4.10;99.90
4366;DHT22;2196;47.422;9.656;2024-01-06T03:43:26;4.10;99.90
4366;DHT22;2196;47.422;9.656;2024-01-06T03:45:53;4.00;99.90
4366;DHT22;2196;47.422;9.656;2024-01-06T03:48:23;4.00;99.90
4366;DHT22;2196;47.422;9.656;2024-01-06T03:50:50;4.00;99.90
4366;DHT22;2196;47.422;9.656;2024-01-06T03:53:17;4.00;99.90
4366;DHT22;2196;47.422;9.656;2024-01-06T03:55:44;4.00;99.90
4366;DHT22;2196;47.422;9.656;2024-01-06T03:58:11;4.10;99.90
4366;DHT22;2196;47.422;9.656;2024-01-06T04:00:39;4.00;99.90
4366;DHT22;2196;47.422;9.656;2024-01-06T04:03:06;4.80;99.90
4366;DHT22;2196;47.422;9.656;2024-01-06T04:10:30;4.00;99.90
4366;DHT22;2196;47.422;9.656;2024-01-06T04:12:57;3.90;99.90
4366;DHT22;2196;47.422;9.656;2024-01-06T04:15:24;4.10;99.90
4366;DHT22;2196;47.422;9.656;2024-01-06T04:17:52;4.20;99.90
4366;DHT22;2196;47.422;9.656;2024-01-06T04:20:19;4.00;99.90
4366;DHT22;2196;47.422;9.656;2024-01-06T04:22:47;4.00;99.90
4366;DHT22;2196;47.422;9.656;2024-01-06T04:25:14;4.00;99.90
4366;DHT22;2196;47.422;9.656;2024-01-06T04:27:41;4.00;99.90
4366;DHT22;2196;47.422;9.656;2024-01-06T04:30:09;4.00;99.90
4366;DHT22;2196;47.422;9.656;2024-01-06T04:32:36;4.00;99.90
4366;DHT22;2196;47.422;9.656;2024-01-06T04:35:04;4.10;99.90
4366;DHT22;2196;47.422;9.656;2024-01-06T04:37:31;4.00;99.90
4366;DHT22;2196;47.422;9.656;2024-01-06T04:39:59;4.10;99.90
4366;DHT22;2196;47.422;9.656;2024-01-06T04:42:26;4.00;99.90
4366;DHT22;2196;47.422;9.656;2024-01-06T04:44:53;4.10;99.90
4366;DHT22;2196;47.422;9.656;2024-01-06T04:47:20;4.00;99.90
4366;DHT22;2196;47.422;9.656;2024-01-06T04:49:47;4.00;99.90
4366;DHT22;2196;47.422;9.656;2024-01-06T04:52:14;4.10;99.90
4366;DHT22;2196;47.422;9.656;2024-01-06T04:54:41;4.20;99.90
4366;DHT22;2196;47.422;9.656;2024-01-06T04:57:10;4.10;99.90
4366;DHT22;2196;47.422;9.656;2024-01-06T04:59:37;4.10;99.90
4366;DHT22;2196;47.422;9.656;2024-01-06T05:02:04;4.10;99.90
4366;DHT22;2196;47.422;9.656;2024-01-06T05:04:31;4.10;99.90
4366;DHT22;2196;47.422;9.656;2024-01-06T05:06:58;4.00;99.90
4366;DHT22;2196;47.422;9.656;2024-01-06T05:09:29;4.10;99.90
4366;DHT22;2196;47.422;9.656;2024-01-06T05:11:56;4.00;99.90
4366;DHT22;2196;47.422;9.656;2024-01-06T05:14:24;4.00;99.90
4366;DHT22;2196;47.422;9.656;2024-01-06T05:16:51;4.10;99.90
4366;DHT22;2196;47.422;9.656;2024-01-06T05:19:18;4.10;99.90
4366;DHT22;2196;47.422;9.656;2024-01-06T05:21:47;4.10;99.90
4366;DHT22;2196;47.422;9.656;2024-01-06T05:24:14;4.10;99.90
4366;DHT22;2196;47.422;9.656;2024-01-06T05:26:41;4.00;99.90
4366;DHT22;2196;47.422;9.656;2024-01-06T05:29:08;4.10;99.90
4366;DHT22;2196;47.422;9.656;2024-01-06T05:31:36;4.10;99.90
4366;DHT22;2196;47.422;9.656;2024-01-06T05:34:03;4.10;99.90
4366;DHT22;2196;47.422;9.656;2024-01-06T05:36:30;4.10;99.90
4366;DHT22;2196;47.422;9.656;2024-01-06T05:46:21;4.00;99.90
4366;DHT22;2196;47.422;9.656;2024-01-06T05:48:50;4.10;99.90
4366;DHT22;2196;47.422;9.656;2024-01-06T05:51:17;4.10;99.90
4366;DHT22;2196;47.422;9.656;2024-01-06T05:53:44;4.20;99.90
4366;DHT22;2196;47.422;9.656;2024-01-06T06:01:17;3.90;99.90
4366;DHT22;2196;47.422;9.656;2024-01-06T06:08:41;4.10;99.90
4366;DHT22;2196;47.422;9.656;2024-01-06T06:11:08;4.10;99.90
4366;DHT22;2196;47.422;9.656;2024-01-06T06:13:37;4.00;99.90
4366;DHT22;2196;47.422;9.656;2024-01-06T06:16:05;4.10;99.90
4366;DHT22;2196;47.422;9.656;2024-01-06T06:18:32;4.10;99.90
4366;DHT22;2196;47.422;9.656;2024-01-06T06:20:59;4.00;99.90
4366;DHT22;2196;47.422;9.656;2024-01-06T06:23:28;4.00;99.90
4366;DHT22;2196;47.422;9.656;2024-01-06T06:33:16;4.00;99.90
4366;DHT22;2196;47.422;9.656;2024-01-06T06:38:11;4.00;99.90
4366;DHT22;2196;47.422;9.656;2024-01-06T06:40:39;4.10;99.90
4366;DHT22;2196;47.422;9.656;2024-01-06T06:43:06;4.10;99.90
4366;DHT22;2196;47.422;9.656;2024-01-06T06:45:33;4.10;99.90
4366;DHT22;2196;47.422;9.656;2024-01-06T06:48:01;4.00;99.90
4366;DHT22;2196;47.422;9.656;2024-01-06T06:50:27;4.00;99.90
4366;DHT22;2196;47.422;9.656;2024-01-06T06:52:55;4.00;99.90
4366;DHT22;2196;47.422;9.656;2024-01-06T06:55:21;3.90;99.90
4366;DHT22;2196;47.422;9.656;2024-01-06T06:57:50;3.90;99.90
4366;DHT22;2196;47.422;9.656;2024-01-06T07:00:17;4.00;99.90
4366;DHT22;2196;47.422;9.656;2024-01-06T07:02:44;3.80;99.90
4366;DHT22;2196;47.422;9.656;2024-01-06T07:05:11;3.80;99.90
4366;DHT22;2196;47.422;9.656;2024-01-06T07:07:38;3.90;99.90
4366;DHT22;2196;47.422;9.656;2024-01-06T07:10:07;4.00;99.90
4366;DHT22;2196;47.422;9.656;2024-01-06T07:12:34;4.00;99.90
4366;DHT22;2196;47.422;9.656;2024-01-06T07:15:03;4.10;99.90
4366;DHT22;2196;47.422;9.656;2024-01-06T07:17:30;3.90;99.90
4366;DHT22;2196;47.422;9.656;2024-01-06T07:19:57;4.00;99.90
4366;DHT22;2196;47.422;9.656;2024-01-06T07:22:24;4.10;99.90
4366;DHT22;2196;47.422;9.656;2024-01-06T07:24:51;3.90;99.90
4366;DHT22;2196;47.422;9.656;2024-01-06T07:27:18;3.80;99.90
4366;DHT22;2196;47.422;9.656;2024-01-06T07:29:45;3.90;99.90
4366;DHT22;2196;47.422;9.656;2024-01-06T07:37:09;3.80;99.90
4366;DHT22;2196;47.422;9.656;2024-01-06T07:39:36;3.90;99.90
4366;DHT22;2196;47.422;9.656;2024-01-06T07:42:03;3.80;99.90
4366;DHT22;2196;47.422;9.656;2024-01-06T07:44:30;3.80;99.90
4366;DHT22;2196;47.422;9.656;2024-01-06T07:46:56;4.00;99.90
4366;DHT22;2196;47.422;9.656;2024-01-06T07:49:24;3.90;99.90
4366;DHT22;2196;47.422;9.656;2024-01-06T07:51:51;4.00;99.90
4366;DHT22;2196;47.422;9.656;2024-01-06T07:54:18;3.90;99.90
4366;DHT22;2196;47.422;9.656;2024-01-06T07:56:45;4.00;99.90
4366;DHT22;2196;47.422;9.656;2024-01-06T07:59:13;4.00;99.90
4366;DHT22;2196;47.422;9.656;2024-01-06T08:01:40;4.00;99.90
4366;DHT22;2196;47.422;9.656;2024-01-06T08:04:08;3.90;99.90
4366;DHT22;2196;47.422;9.656;2024-01-06T08:06:37;4.10;99.90
4366;DHT22;2196;47.422;9.656;2024-01-06T08:09:04;3.90;99.90
4366;DHT22;2196;47.422;9.656;2024-01-06T08:11:31;3.80;99.90
4366;DHT22;2196;47.422;9.656;2024-01-06T08:13:58;3.90;99.90
4366;DHT22;2196;47.422;9.656;2024-01-06T08:16:25;4.00;99.90
4366;DHT22;2196;47.422;9.656;2024-01-06T08:18:52;3.90;99.90
4366;DHT22;2196;47.422;9.656;2024-01-06T08:28:42;4.00;99.90
4366;DHT22;2196;47.422;9.656;2024-01-06T08:31:09;4.10;99.90
4366;DHT22;2196;47.422;9.656;2024-01-06T08:33:36;4.10;99.90
4366;DHT22;2196;47.422;9.656;2024-01-06T08:36:04;4.10;99.90
4366;DHT22;2196;47.422;9.656;2024-01-06T08:38:31;4.10;99.90
4366;DHT22;2196;47.422;9.656;2024-01-06T08:41:00;4.10;99.90
4366;DHT22;2196;47.422;9.656;2024-01-06T08:43:27;4.10;99.90
4366;DHT22;2196;47.422;9.656;2024-01-06T08:48:21;4.10;99.90
4366;DHT22;2196;47.422;9.656;2024-01-06T08:50:48;4.10;99.90
4366;DHT22;2196;47.422;9.656;2024-01-06T08:53:16;4.30;99.90
4366;DHT22;2196;47.422;9.656;2024-01-06T08:55:43;4.20;99.90
4366;DHT22;2196;47.422;9.656;2024-01-06T08:58:12;4.20;99.90
4366;DHT22;2196;47.422;9.656;2024-01-06T09:00:39;4.20;99.90
4366;DHT22;2196;47.422;9.656;2024-01-06T09:03:06;4.20;99.90
4366;DHT22;2196;47.422;9.656;2024-01-06T09:05:33;4.30;99.90
4366;DHT22;2196;47.422;9.656;2024-01-06T09:08:00;4.30;99.90
4366;DHT22;2196;47.422;9.656;2024-01-06T09:10:26;4.50;99.90
4366;DHT22;2196;47.422;9.656;2024-01-06T09:12:54;4.30;99.90
4366;DHT22;2196;47.422;9.656;2024-01-06T09:15:23;4.40;99.90
4366;DHT22;2196;47.422;9.656;2024-01-06T09:17:50;4.40;99.90
4366;DHT22;2196;47.422;9.656;2024-01-06T09:20:17;4.40;99.90
4366;DHT22;2196;47.422;9.656;2024-01-06T09:22:48;4.50;99.90
4366;DHT22;2196;47.422;9.656;2024-01-06T09:25:15;4.70;99.90
4366;DHT22;2196;47.422;9.656;2024-01-06T09:27:42;4.70;99.90
4366;DHT22;2196;47.422;9.656;2024-01-06T09:30:10;4.70;99.90
4366;DHT22;2196;47.422;9.656;2024-01-06T09:32:38;4.70;99.90
4366;DHT22;2196;47.422;9.656;2024-01-06T09:35:06;4.70;99.90
4366;DHT22;2196;47.422;9.656;2024-01-06T09:40:00;4.70;99.90
4366;DHT22;2196;47.422;9.656;2024-01-06T09:44:54;4.70;99.90
4366;DHT22;2196;47.422;9.656;2024-01-06T09:47:22;4.80;99.90
4366;DHT22;2196;47.422;9.656;2024-01-06T09:49:53;5.90;99.90
4366;DHT22;2196;47.422;9.656;2024-01-06T09:54:52;4.90;99.90
4366;DHT22;2196;47.422;9.656;2024-01-06T09:59:47;4.90;99.90
4366;DHT22;2196;47.422;9.656;2024-01-06T10:04:43;4.30;99.90
4366;DHT22;2196;47.422;9.656;2024-01-06T10:07:11;5.00;99.90
4366;DHT22;2196;47.422;9.656;2024-01-06T10:09:40;5.00;99.90
4366;DHT22;2196;47.422;9.656;2024-01-06T10:12:08;5.00;99.90
4366;DHT22;2196;47.422;9.656;2024-01-06T10:14:35;4.80;99.90
4366;DHT22;2196;47.422;9.656;2024-01-06T10:17:09;4.90;99.90
4366;DHT22;2196;47.422;9.656;2024-01-06T10:19:37;4.90;99.90
4366;DHT22;2196;47.422;9.656;2024-01-06T10:22:07;4.90;99.90
4366;DHT22;2196;47.422;9.656;2024-01-06T10:24:38;4.80;99.90
4366;DHT22;2196;47.422;9.656;2024-01-06T10:27:05;4.90;99.90
4366;DHT22;2196;47.422;9.656;2024-01-06T10:29:36;5.00;99.90
4366;DHT22;2196;47.422;9.656;2024-01-06T10:32:04;4.90;99.90
4366;DHT22;2196;47.422;9.656;2024-01-06T10:34:32;4.80;99.90
4366;DHT22;2196;47.422;9.656;2024-01-06T10:37:01;4.40;99.90
4366;DHT22;2196;47.422;9.656;2024-01-06T10:39:29;4.80;99.90
4366;DHT22;2196;47.422;9.656;2024-01-06T10:41:57;4.90;99.90
4366;DHT22;2196;47.422;9.656;2024-01-06T10:44:26;4.70;99.90
4366;DHT22;2196;47.422;9.656;2024-01-06T10:46:54;4.80;99.90
4366;DHT22;2196;47.422;9.656;2024-01-06T10:49:22;4.80;99.90
4366;DHT22;2196;47.422;9.656;2024-01-06T10:51:52;4.80;99.90
4366;DHT22;2196;47.422;9.656;2024-01-06T10:54:21;4.90;99.90
4366;DHT22;2196;47.422;9.656;2024-01-06T10:56:49;4.80;99.90
4366;DHT22;2196;47.422;9.656;2024-01-06T10:59:21;4.70;99.90
4366;DHT22;2196;47.422;9.656;2024-01-06T11:01:51;4.60;99.90
4366;DHT22;2196;47.422;9.656;2024-01-06T11:04:19;4.70;99.90
4366;DHT22;2196;47.422;9.656;2024-01-06T11:06:48;4.80;99.90
4366;DHT22;2196;47.422;9.656;2024-01-06T11:09:21;4.80;99.90
4366;DHT22;2196;47.422;9.656;2024-01-06T11:11:49;4.90;99.90
4366;DHT22;2196;47.422;9.656;2024-01-06T11:14:19;5.00;99.90
4366;DHT22;2196;47.422;9.656;2024-01-06T11:16:47;5.20;99.90
4366;DHT22;2196;47.422;9.656;2024-01-06T11:19:42;5.20;99.90
4366;DHT22;2196;47.422;9.656;2024-01-06T11:22:27;5.20;99.90
4366;DHT22;2196;47.422;9.656;2024-01-06T11:24:56;5.20;99.90
4366;DHT22;2196;47.422;9.656;2024-01-06T11:27:25;5.20;99.90
4366;DHT22;2196;47.422;9.656;2024-01-06T11:29:56;5.30;99.90
4366;DHT22;2196;47.422;9.656;2024-01-06T11:32:28;5.30;99.90
4366;DHT22;2196;47.422;9.656;2024-01-06T11:34:59;5.30;99.90
4366;DHT22;2196;47.422;9.656;2024-01-06T11:37:35;5.40;99.90
4366;DHT22;2196;47.422;9.656;2024-01-06T11:40:04;5.40;99.90
4366;DHT22;2196;47.422;9.656;2024-01-06T11:42:34;5.30;99.90
4366;DHT22;2196;47.422;9.656;2024-01-06T11:45:04;5.30;99.90
4366;DHT22;2196;47.422;9.656;2024-01-06T11:47:32;5.30;99.90
4366;DHT22;2196;47.422;9.656;2024-01-06T11:50:00;5.40;99.90
4366;DHT22;2196;47.422;9.656;2024-01-06T11:52:30;5.30;99.90
4366;DHT22;2196;47.422;9.656;2024-01-06T11:54:57;5.50;99.90
4366;DHT22;2196;47.422;9.656;2024-01-06T11:57:25;5.50;99.90
4366;DHT22;2196;47.422;9.656;2024-01-06T11:59:52;5.40;99.90
4366;DHT22;2196;47.422;9.656;2024-01-06T12:02:21;5.30;99.90
4366;DHT22;2196;47.422;9.656;2024-01-06T12:04:49;5.30;99.90
4366;DHT22;2196;47.422;9.656;2024-01-06T12:07:17;5.30;99.90
4366;DHT22;2196;47.422;9.656;2024-01-06T12:09:45;5.40;99.90
4366;DHT22;2196;47.422;9.656;2024-01-06T12:12:15;5.20;99.90
4366;DHT22;2196;47.422;9.656;2024-01-06T12:14:42;5.30;99.90
4366;DHT22;2196;47.422;9.656;2024-01-06T12:17:10;5.20;99.90
4366;DHT22;2196;47.422;9.656;2024-01-06T12:19:40;5.20;99.90
4366;DHT22;2196;47.422;9.656;2024-01-06T12:24:37;5.40;99.90
4366;DHT22;2196;47.422;9.656;2024-01-06T12:27:09;5.40;99.90
4366;DHT22;2196;47.422;9.656;2024-01-06T12:29:41;5.50;99.90
4366;DHT22;2196;47.422;9.656;2024-01-06T12:32:09;5.30;99.90
4366;DHT22;2196;47.422;9.656;2024-01-06T12:34:40;5.40;99.90
4366;DHT22;2196;47.422;9.656;2024-01-06T12:37:07;5.40;99.90
4366;DHT22;2196;47.422;9.656;2024-01-06T12:39:34;5.50;99.90
4366;DHT22;2196;47.422;9.656;2024-01-06T12:42:02;5.50;99.90
4366;DHT22;2196;47.422;9.656;2024-01-06T12:44:32;5.80;99.90
4366;DHT22;2196;47.422;9.656;2024-01-06T12:47:02;5.50;99.90
4366;DHT22;2196;47.422;9.656;2024-01-06T12:49:33;5.50;99.90
4366;DHT22;2196;47.422;9.656;2024-01-06T12:52:01;5.50;99.90
4366;DHT22;2196;47.422;9.656;2024-01-06T12:54:28;5.50;99.90
4366;DHT22;2196;47.422;9.656;2024-01-06T12:56:55;5.50;99.90
4366;DHT22;2196;47.422;9.656;2024-01-06T13:01:49;5.20;99.90
4366;DHT22;2196;47.422;9.656;2024-01-06T13:04:16;5.20;99.90
4366;DHT22;2196;47.422;9.656;2024-01-06T13:06:44;5.20;99.90
4366;DHT22;2196;47.422;9.656;2024-01-06T13:09:12;5.00;99.90
4366;DHT22;2196;47.422;9.656;2024-01-06T13:11:42;5.10;99.90
4366;DHT22;2196;47.422;9.656;2024-01-06T13:16:39;5.10;99.90
4366;DHT22;2196;47.422;9.656;2024-01-06T13:19:06;4.90;99.90
4366;DHT22;2196;47.422;9.656;2024-01-06T13:21:32;5.00;99.90
4366;DHT22;2196;47.422;9.656;2024-01-06T13:26:31;4.90;99.90
4366;DHT22;2196;47.422;9.656;2024-01-06T13:31:26;5.00;99.90
4366;DHT22;2196;47.422;9.656;2024-01-06T13:33:53;5.00;99.90
4366;DHT22;2196;47.422;9.656;2024-01-06T13:36:21;4.90;99.90
4366;DHT22;2196;47.422;9.656;2024-01-06T13:38:48;4.90;99.90
4366;DHT22;2196;47.422;9.656;2024-01-06T13:41:15;5.00;99.90
4366;DHT22;2196;47.422;9.656;2024-01-06T13:43:43;5.00;99.90
4366;DHT22;2196;47.422;9.656;2024-01-06T13:46:11;5.00;99.90
4366;DHT22;2196;47.422;9.656;2024-01-06T13:48:39;5.10;99.90
4366;DHT22;2196;47.422;9.656;2024-01-06T13:51:06;5.10;99.90
4366;DHT22;2196;47.422;9.656;2024-01-06T13:53:34;5.10;99.90
4366;DHT22;2196;47.422;9.656;2024-01-06T13:56:01;5.10;99.90
4366;DHT22;2196;47.422;9.656;2024-01-06T13:58:28;5.10;99.90
4366;DHT22;2196;47.422;9.656;2024-01-06T14:00:56;5.00;99.90
4366;DHT22;2196;47.422;9.656;2024-01-06T14:03:23;4.90;99.90
4366;DHT22;2196;47.422;9.656;2024-01-06T14:05:50;4.90;99.90
4366;DHT22;2196;47.422;9.656;2024-01-06T14:10:46;4.60;99.90
4366;DHT22;2196;47.422;9.656;2024-01-06T14:13:13;4.90;99.90
4366;DHT22;2196;47.422;9.656;2024-01-06T14:15:40;4.90;99.90
4366;DHT22;2196;47.422;9.656;2024-01-06T14:18:08;4.90;99.90
4366;DHT22;2196;47.422;9.656;2024-01-06T14:20:36;4.90;99.90
4366;DHT22;2196;47.422;9.656;2024-01-06T14:23:04;4.90;99.90
4366;DHT22;2196;47.422;9.656;2024-01-06T14:25:31;4.80;99.90
4366;DHT22;2196;47.422;9.656;2024-01-06T14:27:58;4.30;99.90
4366;DHT22;2196;47.422;9.656;2024-01-06T14:32:52;4.90;99.90
4366;DHT22;2196;47.422;9.656;2024-01-06T14:35:20;4.90;99.90
4366;DHT22;2196;47.422;9.656;2024-01-06T14:37:47;4.90;99.90
4366;DHT22;2196;47.422;9.656;2024-01-06T14:40:15;4.80;99.90
4366;DHT22;2196;47.422;9.656;2024-01-06T14:42:43;4.80;99.90
4366;DHT22;2196;47.422;9.656;2024-01-06T14:45:10;4.80;99.90
4366;DHT22;2196;47.422;9.656;2024-01-06T14:47:37;4.80;99.90
4366;DHT22;2196;47.422;9.656;2024-01-06T14:50:05;4.70;99.90
4366;DHT22;2196;47.422;9.656;2024-01-06T14:52:33;4.80;99.90
4366;DHT22;2196;47.422;9.656;2024-01-06T14:55:00;4.70;99.90
4366;DHT22;2196;47.422;9.656;2024-01-06T14:57:27;4.70;99.90
4366;DHT22;2196;47.422;9.656;2024-01-06T14:59:54;4.60;99.90
4366;DHT22;2196;47.422;9.656;2024-01-06T15:02:21;4.60;99.90
4366;DHT22;2196;47.422;9.656;2024-01-06T15:04:48;4.60;99.90
4366;DHT22;2196;47.422;9.656;2024-01-06T15:07:15;4.60;99.90
4366;DHT22;2196;47.422;9.656;2024-01-06T15:09:43;4.60;99.90
4366;DHT22;2196;47.422;9.656;2024-01-06T15:12:10;4.60;99.90
4366;DHT22;2196;47.422;9.656;2024-01-06T15:14:37;4.60;99.90
4366;DHT22;2196;47.422;9.656;2024-01-06T15:17:04;4.50;99.90
4366;DHT22;2196;47.422;9.656;2024-01-06T15:19:32;4.40;99.90
4366;DHT22;2196;47.422;9.656;2024-01-06T15:21:59;4.50;99.90
4366;DHT22;2196;47.422;9.656;2024-01-06T15:24:25;4.60;99.90
4366;DHT22;2196;47.422;9.656;2024-01-06T15:26:54;4.50;99.90
4366;DHT22;2196;47.422;9.656;2024-01-06T15:29:20;4.40;99.90
4366;DHT22;2196;47.422;9.656;2024-01-06T15:31:47;4.50;99.90
4366;DHT22;2196;47.422;9.656;2024-01-06T15:34:14;4.50;99.90
4366;DHT22;2196;47.422;9.656;2024-01-06T15:36:41;4.50;99.90
4366;DHT22;2196;47.422;9.656;2024-01-06T15:39:08;4.60;99.90
4366;DHT22;2196;47.422;9.656;2024-01-06T15:41:36;4.60;99.90
4366;DHT22;2196;47.422;9.656;2024-01-06T15:44:05;4.60;99.90
4366;DHT22;2196;47.422;9.656;2024-01-06T15:46:32;4.60;99.90
4366;DHT22;2196;47.422;9.656;2024-01-06T15:48:59;4.50;99.90
4366;DHT22;2196;47.422;9.656;2024-01-06T15:51:26;4.60;99.90
4366;DHT22;2196;47.422;9.656;2024-01-06T15:53:52;4.70;99.90
4366;DHT22;2196;47.422;9.656;2024-01-06T15:56:19;4.70;99.90
4366;DHT22;2196;47.422;9.656;2024-01-06T15:58:46;4.50;99.90
4366;DHT22;2196;47.422;9.656;2024-01-06T16:01:15;4.50;99.90
4366;DHT22;2196;47.422;9.656;2024-01-06T16:03:42;4.30;99.90
4366;DHT22;2196;47.422;9.656;2024-01-06T16:06:09;4.30;99.90
4366;DHT22;2196;47.422;9.656;2024-01-06T16:08:36;4.20;99.90
4366;DHT22;2196;47.422;9.656;2024-01-06T16:11:03;4.30;99.90
4366;DHT22;2196;47.422;9.656;2024-01-06T16:13:30;4.20;99.90
4366;DHT22;2196;47.422;9.656;2024-01-06T16:15:57;4.10;99.90
4366;DHT22;2196;47.422;9.656;2024-01-06T16:18:26;4.20;99.90
4366;DHT22;2196;47.422;9.656;2024-01-06T16:20:53;4.20;99.90
4366;DHT22;2196;47.422;9.656;2024-01-06T16:23:22;4.30;99.90
4366;DHT22;2196;47.422;9.656;2024-01-06T16:25:50;4.20;99.90
4366;DHT22;2196;47.422;9.656;2024-01-06T16:28:17;4.20;99.90
4366;DHT22;2196;47.422;9.656;2024-01-06T16:30:44;4.10;99.90
4366;DHT22;2196;47.422;9.656;2024-01-06T16:33:12;4.20;99.90
4366;DHT22;2196;47.422;9.656;2024-01-06T16:35:42;4.20;99.90
4366;DHT22;2196;47.422;9.656;2024-01-06T16:38:11;4.30;99.90
4366;DHT22;2196;47.422;9.656;2024-01-06T16:40:38;4.30;99.90
4366;DHT22;2196;47.422;9.656;2024-01-06T16:43:05;4.20;99.90
4366;DHT22;2196;47.422;9.656;2024-01-06T16:45:32;4.20;99.90
4366;DHT22;2196;47.422;9.656;2024-01-06T16:47:59;4.30;99.90
4366;DHT22;2196;47.422;9.656;2024-01-06T16:52:54;4.20;99.90
4366;DHT22;2196;47.422;9.656;2024-01-06T16:55:22;4.40;99.90
4366;DHT22;2196;47.422;9.656;2024-01-06T16:57:48;4.30;99.90
4366;DHT22;2196;47.422;9.656;2024-01-06T17:00:18;4.30;99.90
4366;DHT22;2196;47.422;9.656;2024-01-06T17:02:45;4.20;99.90
4366;DHT22;2196;47.422;9.656;2024-01-06T17:05:12;4.20;99.90
4366;DHT22;2196;47.422;9.656;2024-01-06T17:07:39;4.20;99.90
4366;DHT22;2196;47.422;9.656;2024-01-06T17:10:11;4.20;99.90
4366;DHT22;2196;47.422;9.656;2024-01-06T17:12:38;4.10;99.90
4366;DHT22;2196;47.422;9.656;2024-01-06T17:15:06;4.10;99.90
4366;DHT22;2196;47.422;9.656;2024-01-06T17:17:33;4.20;99.90
4366;DHT22;2196;47.422;9.656;2024-01-06T17:20:03;4.20;99.90
4366;DHT22;2196;47.422;9.656;2024-01-06T17:22:30;4.10;99.90
4366;DHT22;2196;47.422;9.656;2024-01-06T17:24:57;4.00;99.90
4366;DHT22;2196;47.422;9.656;2024-01-06T17:27:26;4.10;99.90
4366;DHT22;2196;47.422;9.656;2024-01-06T17:29:53;4.10;99.90
4366;DHT22;2196;47.422;9.656;2024-01-06T17:32:20;3.60;99.90
4366;DHT22;2196;47.422;9.656;2024-01-06T17:34:47;4.20;99.90
4366;DHT22;2196;47.422;9.656;2024-01-06T17:37:14;4.10;99.90
4366;DHT22;2196;47.422;9.656;2024-01-06T17:39:41;4.10;99.90
4366;DHT22;2196;47.422;9.656;2024-01-06T17:42:08;4.00;99.90
4366;DHT22;2196;47.422;9.656;2024-01-06T17:44:37;4.10;99.90
4366;DHT22;2196;47.422;9.656;2024-01-06T17:47:10;4.00;99.90
4366;DHT22;2196;47.422;9.656;2024-01-06T17:49:37;4.00;99.90
4366;DHT22;2196;47.422;9.656;2024-01-06T17:52:04;4.20;99.90
4366;DHT22;2196;47.422;9.656;2024-01-06T17:54:31;4.20;99.90
4366;DHT22;2196;47.422;9.656;2024-01-06T17:59:26;4.20;99.90
4366;DHT22;2196;47.422;9.656;2024-01-06T18:04:22;4.10;99.90
4366;DHT22;2196;47.422;9.656;2024-01-06T18:09:17;4.00;99.90
4366;DHT22;2196;47.422;9.656;2024-01-06T18:11:45;4.00;99.90
4366;DHT22;2196;47.422;9.656;2024-01-06T18:14:13;4.10;99.90
4366;DHT22;2196;47.422;9.656;2024-01-06T18:21:36;3.90;99.90
4366;DHT22;2196;47.422;9.656;2024-01-06T18:24:03;4.10;99.90
4366;DHT22;2196;47.422;9.656;2024-01-06T18:26:30;4.00;99.90
4366;DHT22;2196;47.422;9.656;2024-01-06T18:28:57;4.10;99.90
4366;DHT22;2196;47.422;9.656;2024-01-06T18:31:24;4.00;99.90
4366;DHT22;2196;47.422;9.656;2024-01-06T18:33:51;4.10;99.90
4366;DHT22;2196;47.422;9.656;2024-01-06T18:36:19;4.00;99.90
4366;DHT22;2196;47.422;9.656;2024-01-06T18:38:46;4.00;99.90
4366;DHT22;2196;47.422;9.656;2024-01-06T18:41:13;4.00;99.90
4366;DHT22;2196;47.422;9.656;2024-01-06T18:43:40;4.10;99.90